sensor_id;sensor_type;location;lat;lon;timestamp;pressure;altitude;pressure_sealevel;temperature;humidity
64025;BME280;50266;57.446;26.936;2023-07-31T00:00:34;98431.61;;;15.71;100.0
64025;BME280;50266;57.446;26.936;2023-07-31T00:01:34;98434.89;;;15.75;100.0
64025;BME280;50266;57.446;26.936;2023-07-31T00:02:34;98428.52;;;15.72;100.0
64025;BME280;50266;57.446;26.936;2023-07-31T00:03:34;98428.34;;;15.71;100.0
64025;BME280;50266;57.446;26.936;2023-07-31T00:04:34;98428.09;;;15.72;100.0
64025;BME280;50266;57.446;26.936;2023-07-31T00:05:34;98429.89;;;15.77;100.0
64025;BME280;50266;57.446;26.936;2023-07-31T00:06:35;98424.52;;;15.76;100.0
64025;BME280;50266;57.446;26.936;2023-07-31T00:07:34;98423.17;;;15.81;100.0
64025;BME280;50266;57.446;26.936;2023-07-31T00:08:35;98420.17;;;15.83;100.0
64025;BME280;50266;57.446;26.936;2023-07-31T00:09:35;98422.18;;;15.83;100.0
64025;BME280;50266;57.446;26.936;2023-07-31T00:10:35;98419.5;;;15.81;100.0
64025;BME280;50266;57.446;26.936;2023-07-31T00:11:35;98420.75;;;15.81;100.0
64025;BME280;50266;57.446;26.936;2023-07-31T00:12:35;98420.09;;;15.84;100.0
64025;BME280;50266;57.446;26.936;2023-07-31T00:13:35;98419.28;;;15.89;100.0
64025;BME280;50266;57.446;26.936;2023-07-31T00:14:35;98419.03;;;15.9;100.0
64025;BME280;50266;57.446;26.936;2023-07-31T00:15:35;98418.69;;;15.87;100.0
64025;BME280;50266;57.446;26.936;2023-07-31T00:16:35;98415.25;;;15.87;100.0
64025;BME280;50266;57.446;26.936;2023-07-31T00:17:35;98416.84;;;15.87;100.0
64025;BME280;50266;57.446;26.936;2023-07-31T00:18:35;98414.02;;;15.92;100.0
64025;BME280;50266;57.446;26.936;2023-07-31T00:19:35;98419.05;;;15.94;100.0
64025;BME280;50266;57.446;26.936;2023-07-31T00:20:35;98417.37;;;15.91;100.0
64025;BME280;50266;57.446;26.936;2023-07-31T00:21:35;98415.02;;;15.9;100.0
64025;BME280;50266;57.446;26.936;2023-07-31T00:22:35;98418.14;;;15.95;100.0
64025;BME280;50266;57.446;26.936;2023-07-31T00:23:35;98418.66;;;15.98;100.0
64025;BME280;50266;57.446;26.936;2023-07-31T00:24:35;98417.91;;;16.0;100.0
64025;BME280;50266;57.446;26.936;2023-07-31T00:25:35;98417.41;;;15.99;100.0
64025;BME280;50266;57.446;26.936;2023-07-31T00:26:35;98417.55;;;16.0;100.0
64025;BME280;50266;57.446;26.936;2023-07-31T00:27:35;98419.72;;;16.0;100.0
64025;BME280;50266;57.446;26.936;2023-07-31T00:28:35;98419.56;;;16.02;100.0
64025;BME280;50266;57.446;26.936;2023-07-31T00:29:35;98421.76;;;15.99;100.0
64025;BME280;50266;57.446;26.936;2023-07-31T00:30:35;98419.16;;;15.98;100.0
64025;BME280;50266;57.446;26.936;2023-07-31T00:31:35;98420.58;;;15.98;100.0
64025;BME280;50266;57.446;26.936;2023-07-31T00:32:35;98417.89;;;15.96;100.0
64025;BME280;50266;57.446;26.936;2023-07-31T00:33:35;98414.47;;;15.97;100.0
64025;BME280;50266;57.446;26.936;2023-07-31T00:34:36;98416.06;;;15.98;100.0
64025;BME280;50266;57.446;26.936;2023-07-31T00:35:36;98409.28;;;15.99;100.0
64025;BME280;50266;57.446;26.936;2023-07-31T00:36:35;98413.52;;;16.01;100.0
64025;BME280;50266;57.446;26.936;2023-07-31T00:37:35;98409.45;;;16.0;100.0
64025;BME280;50266;57.446;26.936;2023-07-31T00:38:35;98412.96;;;15.98;100.0
64025;BME280;50266;57.446;26.936;2023-07-31T00:39:36;98413.88;;;15.98;100.0
64025;BME280;50266;57.446;26.936;2023-07-31T00:40:36;98409.19;;;15.98;100.0
64025;BME280;50266;57.446;26.936;2023-07-31T00:41:36;98408.61;;;15.98;100.0
64025;BME280;50266;57.446;26.936;2023-07-31T00:42:36;98407.11;;;16.0;100.0
64025;BME280;50266;57.446;26.936;2023-07-31T00:43:36;98405.59;;;16.0;100.0
64025;BME280;50266;57.446;26.936;2023-07-31T00:44:36;98403.73;;;16.01;100.0
64025;BME280;50266;57.446;26.936;2023-07-31T00:45:36;98405.73;;;16.02;100.0
64025;BME280;50266;57.446;26.936;2023-07-31T00:46:36;98401.22;;;16.02;100.0
64025;BME280;50266;57.446;26.936;2023-07-31T00:47:36;98398.04;;;16.03;100.0
64025;BME280;50266;57.446;26.936;2023-07-31T00:48:36;98398.62;;;16.02;100.0
64025;BME280;50266;57.446;26.936;2023-07-31T00:49:36;98397.3;;;15.99;100.0
64025;BME280;50266;57.446;26.936;2023-07-31T00:50:36;98399.54;;;16.01;100.0
64025;BME280;50266;57.446;26.936;2023-07-31T00:51:36;98400.3;;;16.02;100.0
64025;BME280;50266;57.446;26.936;2023-07-31T00:52:36;98396.36;;;16.02;100.0
64025;BME280;50266;57.446;26.936;2023-07-31T00:53:36;98399.81;;;16.06;100.0
64025;BME280;50266;57.446;26.936;2023-07-31T00:54:36;98396.53;;;16.04;100.0
64025;BME280;50266;57.446;26.936;2023-07-31T00:55:36;98394.6;;;16.01;100.0
64025;BME280;50266;57.446;26.936;2023-07-31T00:56:36;98394.69;;;16.03;100.0
64025;BME280;50266;57.446;26.936;2023-07-31T00:57:36;98398.13;;;16.05;100.0
64025;BME280;50266;57.446;26.936;2023-07-31T00:58:36;98397.38;;;16.06;100.0
64025;BME280;50266;57.446;26.936;2023-07-31T00:59:36;98399.4;;;16.08;100.0
64025;BME280;50266;57.446;26.936;2023-07-31T01:00:36;98401.83;;;16.08;100.0
64025;BME280;50266;57.446;26.936;2023-07-31T01:01:36;98401.41;;;16.08;100.0
64025;BME280;50266;57.446;26.936;2023-07-31T01:02:36;98406.28;;;16.1;100.0
64025;BME280;50266;57.446;26.936;2023-07-31T01:03:36;98403.17;;;16.07;100.0
64025;BME280;50266;57.446;26.936;2023-07-31T01:04:36;98404.93;;;16.08;100.0
64025;BME280;50266;57.446;26.936;2023-07-31T01:05:43;98401.83;;;16.07;100.0
64025;BME280;50266;57.446;26.936;2023-07-31T01:06:40;98400.64;;;16.04;100.0
64025;BME280;50266;57.446;26.936;2023-07-31T01:07:52;98398.97;;;16.05;100.0
64025;BME280;50266;57.446;26.936;2023-07-31T01:08:44;98399.13;;;16.03;100.0
64025;BME280;50266;57.446;26.936;2023-07-31T01:09:44;98393.45;;;16.09;100.0
64025;BME280;50266;57.446;26.936;2023-07-31T01:10:49;98394.64;;;16.11;100.0
64025;BME280;50266;57.446;26.936;2023-07-31T01:11:52;98390.19;;;16.09;100.0
64025;BME280;50266;57.446;26.936;2023-07-31T01:12:50;98383.48;;;16.06;100.0
64025;BME280;50266;57.446;26.936;2023-07-31T01:13:49;98386.59;;;16.12;100.0
64025;BME280;50266;57.446;26.936;2023-07-31T01:15:05;98387.92;;;16.08;100.0
64025;BME280;50266;57.446;26.936;2023-07-31T01:15:52;98382.98;;;16.09;100.0
64025;BME280;50266;57.446;26.936;2023-07-31T01:16:52;98382.23;;;16.1;100.0
64025;BME280;50266;57.446;26.936;2023-07-31T01:17:52;98383.42;;;16.12;100.0
64025;BME280;50266;57.446;26.936;2023-07-31T01:18:52;98381.74;;;16.12;100.0
64025;BME280;50266;57.446;26.936;2023-07-31T01:19:52;98378.73;;;16.12;100.0
64025;BME280;50266;57.446;26.936;2023-07-31T01:21:06;98377.3;;;16.12;100.0
64025;BME280;50266;57.446;26.936;2023-07-31T01:22:15;98373.45;;;16.15;100.0
64025;BME280;50266;57.446;26.936;2023-07-31T01:23:08;98377.23;;;16.15;100.0
64025;BME280;50266;57.446;26.936;2023-07-31T01:24:07;98377.23;;;16.15;100.0
64025;BME280;50266;57.446;26.936;2023-07-31T01:26:15;98373.63;;;16.18;100.0
64025;BME280;50266;57.446;26.936;2023-07-31T01:27:12;98378.31;;;16.15;100.0
64025;BME280;50266;57.446;26.936;2023-07-31T01:28:13;98376.47;;;16.14;100.0
64025;BME280;50266;57.446;26.936;2023-07-31T01:29:17;98378.91;;;16.18;100.0
64025;BME280;50266;57.446;26.936;2023-07-31T01:30:14;98374.81;;;16.2;100.0
64025;BME280;50266;57.446;26.936;2023-07-31T01:31:14;98374.2;;;16.24;100.0
64025;BME280;50266;57.446;26.936;2023-07-31T01:32:12;98372.13;;;16.21;100.0
64025;BME280;50266;57.446;26.936;2023-07-31T01:33:12;98377.16;;;16.19;100.0
64025;BME280;50266;57.446;26.936;2023-07-31T01:34:12;98372.3;;;16.19;100.0
64025;BME280;50266;57.446;26.936;2023-07-31T01:35:12;98372.46;;;16.19;100.0
64025;BME280;50266;57.446;26.936;2023-07-31T01:36:12;98370.52;;;16.22;100.0
64025;BME280;50266;57.446;26.936;2023-07-31T01:37:12;98366.77;;;16.19;100.0
64025;BME280;50266;57.446;26.936;2023-07-31T01:38:12;98369.44;;;16.17;100.0
64025;BME280;50266;57.446;26.936;2023-07-31T01:39:12;98370.95;;;16.27;100.0
64025;BME280;50266;57.446;26.936;2023-07-31T01:40:12;98370.69;;;16.23;100.0
64025;BME280;50266;57.446;26.936;2023-07-31T01:41:12;98374.98;;;16.19;100.0
64025;BME280;50266;57.446;26.936;2023-07-31T01:42:12;98372.8;;;16.19;100.0
64025;BME280;50266;57.446;26.936;2023-07-31T01:43:12;98370.69;;;16.23;100.0
64025;BME280;50266;57.446;26.936;2023-07-31T01:44:12;98369.86;;;16.17;100.0
64025;BME280;50266;57.446;26.936;2023-07-31T01:45:12;98368.27;;;16.18;100.0
64025;BME280;50266;57.446;26.936;2023-07-31T01:46:12;98366.66;;;16.23;100.0
64025;BME280;50266;57.446;26.936;2023-07-31T01:47:12;98364.16;;;16.18;100.0
64025;BME280;50266;57.446;26.936;2023-07-31T01:48:12;98363.81;;;16.21;100.0
64025;BME280;50266;57.446;26.936;2023-07-31T01:49:12;98362.72;;;16.23;100.0
64025;BME280;50266;57.446;26.936;2023-07-31T01:50:12;98365.93;;;16.2;100.0
64025;BME280;50266;57.446;26.936;2023-07-31T01:51:12;98363.31;;;16.23;100.0
64025;BME280;50266;57.446;26.936;2023-07-31T01:52:12;98365.15;;;16.21;100.0
64025;BME280;50266;57.446;26.936;2023-07-31T01:53:12;98367.52;;;16.19;100.0
64025;BME280;50266;57.446;26.936;2023-07-31T01:54:12;98365.08;;;16.13;100.0
64025;BME280;50266;57.446;26.936;2023-07-31T01:55:13;98360.89;;;16.16;100.0
64025;BME280;50266;57.446;26.936;2023-07-31T01:56:13;98363.15;;;16.14;100.0
64025;BME280;50266;57.446;26.936;2023-07-31T01:57:13;98362.55;;;16.08;100.0
64025;BME280;50266;57.446;26.936;2023-07-31T01:58:13;98362.22;;;16.09;100.0
64025;BME280;50266;57.446;26.936;2023-07-31T01:59:13;98356.28;;;16.13;100.0
64025;BME280;50266;57.446;26.936;2023-07-31T02:00:13;98353.84;;;16.12;100.0
64025;BME280;50266;57.446;26.936;2023-07-31T02:01:13;98353.78;;;16.17;100.0
64025;BME280;50266;57.446;26.936;2023-07-31T02:02:13;98346.81;;;16.11;100.0
64025;BME280;50266;57.446;26.936;2023-07-31T02:03:13;98343.3;;;16.18;100.0
64025;BME280;50266;57.446;26.936;2023-07-31T02:04:13;98345.89;;;16.12;100.0
64025;BME280;50266;57.446;26.936;2023-07-31T02:05:13;98343.11;;;16.05;100.0
64025;BME280;50266;57.446;26.936;2023-07-31T02:06:13;98342.94;;;16.08;100.0
64025;BME280;50266;57.446;26.936;2023-07-31T02:07:13;98345.04;;;16.09;100.0
64025;BME280;50266;57.446;26.936;2023-07-31T02:08:13;98342.36;;;16.0;100.0
64025;BME280;50266;57.446;26.936;2023-07-31T02:09:13;98336.58;;;15.96;100.0
64025;BME280;50266;57.446;26.936;2023-07-31T02:10:13;98340.85;;;15.98;100.0
64025;BME280;50266;57.446;26.936;2023-07-31T02:11:13;98338.25;;;15.97;100.0
64025;BME280;50266;57.446;26.936;2023-07-31T02:12:13;98339.91;;;15.94;100.0
64025;BME280;50266;57.446;26.936;2023-07-31T02:13:13;98342.83;;;15.88;100.0
64025;BME280;50266;57.446;26.936;2023-07-31T02:14:13;98339.56;;;15.9;100.0
64025;BME280;50266;57.446;26.936;2023-07-31T02:15:13;98341.42;;;15.93;100.0
64025;BME280;50266;57.446;26.936;2023-07-31T02:16:13;98343.25;;;15.91;100.0
64025;BME280;50266;57.446;26.936;2023-07-31T02:17:13;98343.08;;;15.87;100.0
64025;BME280;50266;57.446;26.936;2023-07-31T02:18:13;98347.58;;;15.84;100.0
64025;BME280;50266;57.446;26.936;2023-07-31T02:19:13;98345.83;;;15.84;100.0
64025;BME280;50266;57.446;26.936;2023-07-31T02:20:13;98342.48;;;15.86;100.0
64025;BME280;50266;57.446;26.936;2023-07-31T02:21:13;98344.41;;;15.86;100.0
64025;BME280;50266;57.446;26.936;2023-07-31T02:22:13;98342.05;;;15.84;100.0
64025;BME280;50266;57.446;26.936;2023-07-31T02:23:13;98345.73;;;15.83;100.0
64025;BME280;50266;57.446;26.936;2023-07-31T02:24:13;98341.2;;;15.81;100.0
64025;BME280;50266;57.446;26.936;2023-07-31T02:25:13;98335.34;;;15.82;100.0
64025;BME280;50266;57.446;26.936;2023-07-31T02:26:13;98336.04;;;15.78;100.0
64025;BME280;50266;57.446;26.936;2023-07-31T02:27:13;98338.62;;;15.75;100.0
64025;BME280;50266;57.446;26.936;2023-07-31T02:28:13;98336.68;;;15.72;100.0
64025;BME280;50266;57.446;26.936;2023-07-31T02:29:13;98337.59;;;15.69;100.0
64025;BME280;50266;57.446;26.936;2023-07-31T02:30:13;98338.65;;;15.63;100.0
64025;BME280;50266;57.446;26.936;2023-07-31T02:31:13;98342.16;;;15.6;100.0
64025;BME280;50266;57.446;26.936;2023-07-31T02:32:13;98336.71;;;15.6;100.0
64025;BME280;50266;57.446;26.936;2023-07-31T02:33:14;98338.57;;;15.57;100.0
64025;BME280;50266;57.446;26.936;2023-07-31T02:34:13;98340.43;;;15.51;100.0
64025;BME280;50266;57.446;26.936;2023-07-31T02:35:13;98338.16;;;15.49;100.0
64025;BME280;50266;57.446;26.936;2023-07-31T02:36:13;98341.23;;;15.45;100.0
64025;BME280;50266;57.446;26.936;2023-07-31T02:37:13;98341.5;;;15.46;100.0
64025;BME280;50266;57.446;26.936;2023-07-31T02:38:13;98342.06;;;15.43;100.0
64025;BME280;50266;57.446;26.936;2023-07-31T02:39:13;98338.22;;;15.37;100.0
64025;BME280;50266;57.446;26.936;2023-07-31T02:40:13;98337.37;;;15.36;100.0
64025;BME280;50266;57.446;26.936;2023-07-31T02:41:13;98337.19;;;15.33;100.0
64025;BME280;50266;57.446;26.936;2023-07-31T02:42:14;98331.31;;;15.3;100.0
64025;BME280;50266;57.446;26.936;2023-07-31T02:43:13;98329.3;;;15.28;100.0
64025;BME280;50266;57.446;26.936;2023-07-31T02:44:13;98330.78;;;15.24;100.0
64025;BME280;50266;57.446;26.936;2023-07-31T02:45:13;98329.17;;;15.23;100.0
64025;BME280;50266;57.446;26.936;2023-07-31T02:46:13;98329.24;;;15.2;100.0
64025;BME280;50266;57.446;26.936;2023-07-31T02:47:13;98328.57;;;15.19;100.0
64025;BME280;50266;57.446;26.936;2023-07-31T02:48:13;98326.16;;;15.16;100.0
64025;BME280;50266;57.446;26.936;2023-07-31T02:49:13;98325.56;;;15.15;100.0
64025;BME280;50266;57.446;26.936;2023-07-31T02:50:13;98325.47;;;15.13;100.0
64025;BME280;50266;57.446;26.936;2023-07-31T02:51:13;98322.88;;;15.12;100.0
64025;BME280;50266;57.446;26.936;2023-07-31T02:52:13;98322.61;;;15.11;100.0
64025;BME280;50266;57.446;26.936;2023-07-31T02:53:13;98322.09;;;15.08;100.0
64025;BME280;50266;57.446;26.936;2023-07-31T02:54:13;98315.3;;;15.05;100.0
64025;BME280;50266;57.446;26.936;2023-07-31T02:55:13;98314.27;;;15.02;100.0
64025;BME280;50266;57.446;26.936;2023-07-31T02:56:14;98314.43;;;15.01;100.0
64025;BME280;50266;57.446;26.936;2023-07-31T02:57:14;98315.18;;;15.0;100.0
64025;BME280;50266;57.446;26.936;2023-07-31T02:58:14;98316.16;;;14.97;100.0
64025;BME280;50266;57.446;26.936;2023-07-31T02:59:14;98313.25;;;14.94;100.0
64025;BME280;50266;57.446;26.936;2023-07-31T03:00:14;98313.33;;;14.93;100.0
64025;BME280;50266;57.446;26.936;2023-07-31T03:01:14;98314.22;;;14.9;100.0
64025;BME280;50266;57.446;26.936;2023-07-31T03:02:14;98311.61;;;14.88;100.0
64025;BME280;50266;57.446;26.936;2023-07-31T03:03:14;98307.91;;;14.85;100.0
64025;BME280;50266;57.446;26.936;2023-07-31T03:04:14;98306.16;;;14.85;100.0
64025;BME280;50266;57.446;26.936;2023-07-31T03:05:14;98302.98;;;14.85;100.0
64025;BME280;50266;57.446;26.936;2023-07-31T03:06:14;98302.39;;;14.84;100.0
64025;BME280;50266;57.446;26.936;2023-07-31T03:07:14;98303.16;;;14.85;100.0
64025;BME280;50266;57.446;26.936;2023-07-31T03:08:14;98300.84;;;14.78;100.0
64025;BME280;50266;57.446;26.936;2023-07-31T03:09:14;98299.73;;;14.76;100.0
64025;BME280;50266;57.446;26.936;2023-07-31T03:10:14;98304.2;;;14.79;100.0
64025;BME280;50266;57.446;26.936;2023-07-31T03:11:14;98300.2;;;14.82;100.0
64025;BME280;50266;57.446;26.936;2023-07-31T03:12:14;98301.95;;;14.82;100.0
64025;BME280;50266;57.446;26.936;2023-07-31T03:13:14;98301.46;;;14.83;100.0
64025;BME280;50266;57.446;26.936;2023-07-31T03:14:14;98299.7;;;14.82;100.0
64025;BME280;50266;57.446;26.936;2023-07-31T03:15:14;98301.47;;;14.83;100.0
64025;BME280;50266;57.446;26.936;2023-07-31T03:16:14;98298.3;;;14.84;100.0
64025;BME280;50266;57.446;26.936;2023-07-31T03:17:15;98294.85;;;14.82;100.0
64025;BME280;50266;57.446;26.936;2023-07-31T03:18:14;98298.05;;;14.85;100.0
64025;BME280;50266;57.446;26.936;2023-07-31T03:19:14;98294.37;;;14.85;100.0
64025;BME280;50266;57.446;26.936;2023-07-31T03:20:15;98290.45;;;14.87;100.0
64025;BME280;50266;57.446;26.936;2023-07-31T03:21:15;98290.45;;;14.85;100.0
64025;BME280;50266;57.446;26.936;2023-07-31T03:22:15;98289.27;;;14.84;100.0
64025;BME280;50266;57.446;26.936;2023-07-31T03:23:15;98288.61;;;14.86;100.0
64025;BME280;50266;57.446;26.936;2023-07-31T03:24:15;98288.7;;;14.88;100.0
64025;BME280;50266;57.446;26.936;2023-07-31T03:25:15;98286.53;;;14.88;100.0
64025;BME280;50266;57.446;26.936;2023-07-31T03:26:15;98284.71;;;14.9;100.0
64025;BME280;50266;57.446;26.936;2023-07-31T03:27:15;98285.72;;;14.92;100.0
64025;BME280;50266;57.446;26.936;2023-07-31T03:28:15;98283.87;;;14.9;100.0
64025;BME280;50266;57.446;26.936;2023-07-31T03:29:15;98284.7;;;14.89;100.0
64025;BME280;50266;57.446;26.936;2023-07-31T03:30:15;98286.65;;;14.93;100.0
64025;BME280;50266;57.446;26.936;2023-07-31T03:31:15;98287.3;;;14.89;100.0
64025;BME280;50266;57.446;26.936;2023-07-31T03:32:15;98284.22;;;14.93;100.0
64025;BME280;50266;57.446;26.936;2023-07-31T03:33:15;98283.31;;;14.93;100.0
64025;BME280;50266;57.446;26.936;2023-07-31T03:34:15;98285.07;;;14.99;100.0
64025;BME280;50266;57.446;26.936;2023-07-31T03:35:15;98286.83;;;15.0;100.0
64025;BME280;50266;57.446;26.936;2023-07-31T03:36:15;98288.15;;;14.97;100.0
64025;BME280;50266;57.446;26.936;2023-07-31T03:37:15;98290.84;;;15.0;100.0
64025;BME280;50266;57.446;26.936;2023-07-31T03:38:15;98292.27;;;15.0;100.0
64025;BME280;50266;57.446;26.936;2023-07-31T03:39:15;98291.95;;;15.03;100.0
64025;BME280;50266;57.446;26.936;2023-07-31T03:40:15;98289.7;;;15.04;100.0
64025;BME280;50266;57.446;26.936;2023-07-31T03:41:15;98288.86;;;15.03;100.0
64025;BME280;50266;57.446;26.936;2023-07-31T03:42:15;98285.17;;;15.02;100.0
64025;BME280;50266;57.446;26.936;2023-07-31T03:43:15;98290.45;;;15.03;100.0
64025;BME280;50266;57.446;26.936;2023-07-31T03:44:15;98289.62;;;15.05;100.0
64025;BME280;50266;57.446;26.936;2023-07-31T03:45:15;98290.4;;;15.09;100.0
64025;BME280;50266;57.446;26.936;2023-07-31T03:46:15;98288.73;;;15.09;100.0
64025;BME280;50266;57.446;26.936;2023-07-31T03:47:15;98288.14;;;15.09;100.0
64025;BME280;50266;57.446;26.936;2023-07-31T03:48:16;98282.39;;;15.12;100.0
64025;BME280;50266;57.446;26.936;2023-07-31T03:49:16;98281.15;;;15.14;100.0
64025;BME280;50266;57.446;26.936;2023-07-31T03:50:16;98281.06;;;15.14;100.0
64025;BME280;50266;57.446;26.936;2023-07-31T03:51:16;98283.34;;;15.17;100.0
64025;BME280;50266;57.446;26.936;2023-07-31T03:52:16;98280.91;;;15.16;100.0
64025;BME280;50266;57.446;26.936;2023-07-31T03:53:16;98286.34;;;15.16;100.0
64025;BME280;50266;57.446;26.936;2023-07-31T03:54:16;98285.91;;;15.19;100.0
64025;BME280;50266;57.446;26.936;2023-07-31T03:55:16;98283.77;;;15.24;100.0
64025;BME280;50266;57.446;26.936;2023-07-31T03:56:16;98284.07;;;15.19;100.0
64025;BME280;50266;57.446;26.936;2023-07-31T03:57:16;98288.36;;;15.23;100.0
64025;BME280;50266;57.446;26.936;2023-07-31T03:58:16;98287.71;;;15.27;100.0
64025;BME280;50266;57.446;26.936;2023-07-31T03:59:16;98289.8;;;15.26;100.0
64025;BME280;50266;57.446;26.936;2023-07-31T04:00:16;98288.05;;;15.29;100.0
64025;BME280;50266;57.446;26.936;2023-07-31T04:01:16;98292.99;;;15.29;100.0
64025;BME280;50266;57.446;26.936;2023-07-31T04:02:16;98284.55;;;15.32;100.0
64025;BME280;50266;57.446;26.936;2023-07-31T04:03:16;98283.82;;;15.36;100.0
64025;BME280;50266;57.446;26.936;2023-07-31T04:04:16;98277.44;;;15.32;100.0
64025;BME280;50266;57.446;26.936;2023-07-31T04:05:16;98282.12;;;15.29;100.0
64025;BME280;50266;57.446;26.936;2023-07-31T04:06:16;98279.18;;;15.27;100.0
64025;BME280;50266;57.446;26.936;2023-07-31T04:07:16;98283.36;;;15.27;100.0
64025;BME280;50266;57.446;26.936;2023-07-31T04:08:16;98284.03;;;15.26;100.0
64025;BME280;50266;57.446;26.936;2023-07-31T04:09:16;98288.98;;;15.3;100.0
64025;BME280;50266;57.446;26.936;2023-07-31T04:10:16;98290.67;;;15.34;100.0
64025;BME280;50266;57.446;26.936;2023-07-31T04:11:16;98293.11;;;15.42;100.0
64025;BME280;50266;57.446;26.936;2023-07-31T04:12:16;98291.84;;;15.39;100.0
64025;BME280;50266;57.446;26.936;2023-07-31T04:13:16;98292.92;;;15.38;100.0
64025;BME280;50266;57.446;26.936;2023-07-31T04:14:16;98289.09;;;15.37;100.0
64025;BME280;50266;57.446;26.936;2023-07-31T04:15:16;98292.45;;;15.37;100.0
64025;BME280;50266;57.446;26.936;2023-07-31T04:16:16;98286.58;;;15.41;100.0
64025;BME280;50266;57.446;26.936;2023-07-31T04:17:19;98289.02;;;15.43;100.0
64025;BME280;50266;57.446;26.936;2023-07-31T04:18:16;98288.34;;;15.44;100.0
64025;BME280;50266;57.446;26.936;2023-07-31T04:19:16;98286.17;;;15.44;100.0
64025;BME280;50266;57.446;26.936;2023-07-31T04:20:16;98280.41;;;15.47;100.0
64025;BME280;50266;57.446;26.936;2023-07-31T04:21:16;98281.02;;;15.5;100.0
64025;BME280;50266;57.446;26.936;2023-07-31T04:22:16;98277.67;;;15.51;100.0
64025;BME280;50266;57.446;26.936;2023-07-31T04:23:16;98277.95;;;15.6;100.0
64025;BME280;50266;57.446;26.936;2023-07-31T04:24:16;98281.98;;;15.61;100.0
64025;BME280;50266;57.446;26.936;2023-07-31T04:25:17;98278.2;;;15.6;100.0
64025;BME280;50266;57.446;26.936;2023-07-31T04:26:17;98282.83;;;15.63;100.0
64025;BME280;50266;57.446;26.936;2023-07-31T04:27:17;98282.08;;;15.64;100.0
64025;BME280;50266;57.446;26.936;2023-07-31T04:28:17;98284.17;;;15.64;100.0
64025;BME280;50266;57.446;26.936;2023-07-31T04:29:17;98282.51;;;15.69;100.0
64025;BME280;50266;57.446;26.936;2023-07-31T04:30:17;98285.12;;;15.75;100.0
64025;BME280;50266;57.446;26.936;2023-07-31T04:31:17;98286.31;;;15.79;100.0
64025;BME280;50266;57.446;26.936;2023-07-31T04:32:17;98283.86;;;15.84;100.0
64025;BME280;50266;57.446;26.936;2023-07-31T04:33:17;98282.94;;;15.82;100.0
64025;BME280;50266;57.446;26.936;2023-07-31T04:34:17;98285.78;;;15.8;100.0
64025;BME280;50266;57.446;26.936;2023-07-31T04:35:17;98283.86;;;15.83;100.0
64025;BME280;50266;57.446;26.936;2023-07-31T04:36:17;98285.62;;;15.86;100.0
64025;BME280;50266;57.446;26.936;2023-07-31T04:37:17;98286.47;;;15.87;100.0
64025;BME280;50266;57.446;26.936;2023-07-31T04:38:17;98283.62;;;15.88;100.0
64025;BME280;50266;57.446;26.936;2023-07-31T04:39:17;98280.86;;;15.89;100.0
64025;BME280;50266;57.446;26.936;2023-07-31T04:40:17;98278.09;;;15.86;100.0
64025;BME280;50266;57.446;26.936;2023-07-31T04:41:17;98275.75;;;15.85;100.0
64025;BME280;50266;57.446;26.936;2023-07-31T04:42:17;98275.59;;;15.88;100.0
64025;BME280;50266;57.446;26.936;2023-07-31T04:43:17;98275.67;;;16.0;100.0
64025;BME280;50266;57.446;26.936;2023-07-31T04:44:17;98280.3;;;15.99;100.0
64025;BME280;50266;57.446;26.936;2023-07-31T04:45:17;98281.28;;;16.02;100.0
64025;BME280;50266;57.446;26.936;2023-07-31T04:46:17;98287.0;;;15.99;100.0
64025;BME280;50266;57.446;26.936;2023-07-31T04:47:17;98289.07;;;16.01;100.0
64025;BME280;50266;57.446;26.936;2023-07-31T04:48:17;98290.0;;;16.04;100.0
64025;BME280;50266;57.446;26.936;2023-07-31T04:49:17;98292.85;;;16.06;100.0
64025;BME280;50266;57.446;26.936;2023-07-31T04:50:17;98296.05;;;16.14;100.0
64025;BME280;50266;57.446;26.936;2023-07-31T04:51:17;98297.23;;;16.19;100.0
64025;BME280;50266;57.446;26.936;2023-07-31T04:52:17;98297.55;;;16.3;100.0
64025;BME280;50266;57.446;26.936;2023-07-31T04:53:17;98299.05;;;16.42;100.0
64025;BME280;50266;57.446;26.936;2023-07-31T04:54:17;98299.65;;;16.31;100.0
64025;BME280;50266;57.446;26.936;2023-07-31T04:55:17;98295.8;;;16.34;100.0
64025;BME280;50266;57.446;26.936;2023-07-31T04:56:17;98302.41;;;16.31;100.0
64025;BME280;50266;57.446;26.936;2023-07-31T04:57:17;98299.14;;;16.25;100.0
64025;BME280;50266;57.446;26.936;2023-07-31T04:58:17;98300.75;;;16.2;100.0
64025;BME280;50266;57.446;26.936;2023-07-31T04:59:17;98302.34;;;16.21;100.0
64025;BME280;50266;57.446;26.936;2023-07-31T05:00:17;98303.42;;;16.28;100.0
64025;BME280;50266;57.446;26.936;2023-07-31T05:01:17;98303.5;;;16.29;100.0
64025;BME280;50266;57.446;26.936;2023-07-31T05:02:17;98307.7;;;16.32;100.0
64025;BME280;50266;57.446;26.936;2023-07-31T05:03:17;98305.52;;;16.33;100.0
64025;BME280;50266;57.446;26.936;2023-07-31T05:04:17;98308.7;;;16.35;100.0
64025;BME280;50266;57.446;26.936;2023-07-31T05:05:17;98309.7;;;16.3;100.0
64025;BME280;50266;57.446;26.936;2023-07-31T05:06:17;98311.38;;;16.34;100.0
64025;BME280;50266;57.446;26.936;2023-07-31T05:07:17;98316.75;;;16.4;100.0
64025;BME280;50266;57.446;26.936;2023-07-31T05:08:17;98316.59;;;16.38;100.0
64025;BME280;50266;57.446;26.936;2023-07-31T05:09:17;98316.98;;;16.43;100.0
64025;BME280;50266;57.446;26.936;2023-07-31T05:10:17;98313.56;;;16.35;100.0
64025;BME280;50266;57.446;26.936;2023-07-31T05:11:17;98316.16;;;16.3;100.0
64025;BME280;50266;57.446;26.936;2023-07-31T05:12:17;98315.91;;;16.33;100.0
64025;BME280;50266;57.446;26.936;2023-07-31T05:13:17;98317.5;;;16.3;100.0
64025;BME280;50266;57.446;26.936;2023-07-31T05:14:17;98315.83;;;16.34;100.0
64025;BME280;50266;57.446;26.936;2023-07-31T05:15:17;98318.31;;;16.44;100.0
64025;BME280;50266;57.446;26.936;2023-07-31T05:16:17;98320.0;;;16.47;100.0